Aérodrome :
LOGIN :

S'inscrire | Disclaimer

   EN    FR    IT 

 










Légende :    VFR   VFR Marginal   IFR   IFR Intensif   IFR Très Intensif
Visi : 
Plafond : 
>= 8 km
>= 3000ft
5 à 8 km
1000 à 3000 ft
1500m à 5 km
500 à 1000 ft
800 à 1500m
200 à 500 ft
< 800m
< 200 ft
Symboles :   Orages  Brouillard  Fortes neiges  Fortes précipitations  Vent > 20 kt
SIGMETs :   Divers  Orages  Givrage  Turbulence  Onde Orograph.  Cendres Volcan.







- Altitude de l'aérodrome : 202 ft
- Code IATA : LGW
- Voir les cartes d'approche


EGKK - London Gatwick

DERNIER METAR :
  • 222020Z 15003KT 9999 VCSH FEW013 SCT023TCU 14/13 Q1009

METARs EXPIRÉS :
  • 221950Z VRB03KT 9999 VCSH FEW017 SCT030TCU 14/12 Q1009 RESHRA
  • 221920Z 16004KT 120V190 9999 SCT022CB SCT040 14/12 Q1009
  • 221850Z 19005KT 150V230 9999 FEW025CB FEW046 14/12 Q1009
  • 221820Z 20006KT 9999 FEW018 14/12 Q1009
  • 221750Z 20007KT 170V230 9999 FEW011 15/13 Q1009

TAF TAF EGKK
Valide du 22 à 18h jusqu'au 24 à 00h UTC


221703Z 2218/2324 17005KT 9999 SCT025
PROB30
TEMPO 2218/2221 6000 SHRA BKN012
BECMG 2221/2224 8000
PROB30
TEMPO 2300/2306 0500 FG BKN000
BECMG 2306/2309 25010KT 9999
PROB30
TEMPO 2306/2309 BKN008
PROB30
TEMPO 2312/2318 6000 SHRA
Pas de NOTAMs connus pour ce terrain.



MET'MAP, la Météo Aéronautique d'un coup d'oeil ! - Copyright ORBIFLY Décembre 2007 - Disclaimer

ORBIFLY MET'MAP TEAM :

Programmation & Développement : Alexandra Zaïnal
Conception & Développement : Baudouin d'Aumeries
Co-Programmation & Développement : Marc-Olivier Méhu
Soutien technique & logistique : Manuel Goepfert

Contact : metmap@orbifly.com




SOURCES & CREDITS :

   NOAA